Time;durP1;ratioP1;P1;durP2;ratioP2;P2;SDS_P1;SDS_P2;PMS_P1;PMS_P2;Temp;Humidity;BMP_temperature;BMP_pressure;BME280_temperature;BME280_humidity;BME280_pressure;Samples;Min_cycle;Max_cycle;Signal;HPM_P1;HPM_P2
2022/09/07 00:00:53;;;;;;;11.43;6.47;;;18.30;99.90;;;;;;5052539;28;20128;-71
2022/09/07 00:03:19;;;;;;;13.00;6.40;;;18.30;99.90;;;;;;5044620;28;20068;-72
2022/09/07 00:05:47;;;;;;;11.75;6.50;;;18.30;99.90;;;;;;5034841;28;20076;-73
2022/09/07 00:08:13;;;;;;;12.45;6.30;;;18.20;99.90;;;;;;5029972;28;20051;-73
2022/09/07 00:11:05;;;;;;;18.65;6.50;;;18.20;99.90;;;;;;5047203;28;20102;-73
2022/09/07 00:13:35;;;;;;;11.40;5.95;;;18.20;99.90;;;;;;5047090;28;20056;-72
2022/09/07 00:16:26;;;;;;;13.93;6.18;;;18.10;99.90;;;;;;5039726;28;20033;-73
2022/09/07 00:18:55;;;;;;;11.25;5.65;;;18.10;99.90;;;;;;5040563;28;20041;-74
2022/09/07 00:21:23;;;;;;;11.90;5.90;;;18.10;99.90;;;;;;5059048;28;20049;-74
2022/09/07 00:23:49;;;;;;;12.82;6.30;;;18.10;99.90;;;;;;5039432;28;20090;-74
2022/09/07 00:26:21;;;;;;;11.45;6.22;;;18.10;99.90;;;;;;5042156;28;20128;-73
2022/09/07 00:28:50;;;;;;;10.25;5.70;;;18.10;99.90;;;;;;5039696;28;20175;-73
2022/09/07 00:31:18;;;;;;;11.52;6.30;;;18.10;99.90;;;;;;5018121;28;20412;-72
2022/09/07 00:33:49;;;;;;;13.07;6.30;;;18.10;99.90;;;;;;5018064;28;20080;-72
2022/09/07 00:36:16;;;;;;;11.32;6.22;;;18.00;99.90;;;;;;5025370;28;20045;-72
2022/09/07 00:38:42;;;;;;;11.45;6.63;;;18.00;99.90;;;;;;5049447;28;20080;-72
2022/09/07 00:41:08;;;;;;;12.50;6.90;;;18.00;99.90;;;;;;5013174;28;20095;-72
2022/09/07 00:43:36;;;;;;;15.82;6.78;;;17.90;99.90;;;;;;5021913;28;20102;-74
2022/09/07 00:46:04;;;;;;;12.60;6.68;;;17.60;99.90;;;;;;5029215;28;20049;-72
2022/09/07 00:48:35;;;;;;;15.13;6.90;;;17.90;99.90;;;;;;5023971;28;20044;-71
2022/09/07 00:51:05;;;;;;;12.00;6.77;;;17.90;99.90;;;;;;5025244;28;20087;-72
2022/09/07 00:53:52;;;;;;;13.60;6.63;;;17.80;99.90;;;;;;5012721;28;20602;-71
2022/09/07 00:56:20;;;;;;;13.27;6.90;;;17.80;99.90;;;;;;5024102;28;20711;-72
2022/09/07 00:58:52;;;;;;;11.98;7.10;;;17.80;99.90;;;;;;5025443;28;20095;-72
2022/09/07 01:01:18;;;;;;;11.75;6.40;;;17.80;99.90;;;;;;5023699;28;20045;-72
2022/09/07 01:03:47;;;;;;;10.63;6.68;;;17.70;99.90;;;;;;5014400;28;20037;-73
2022/09/07 01:06:20;;;;;;;15.07;6.88;;;17.80;99.90;;;;;;5012921;28;20038;-72
2022/09/07 01:08:51;;;;;;;12.70;7.07;;;17.80;99.90;;;;;;5022510;28;20044;-73
2022/09/07 01:11:21;;;;;;;12.05;7.05;;;17.80;99.90;;;;;;5015208;28;20145;-72
2022/09/07 01:13:49;;;;;;;16.10;6.97;;;17.70;99.90;;;;;;4997428;28;20109;-74
2022/09/07 01:16:28;;;;;;;11.85;6.93;;;17.70;99.90;;;;;;5035027;28;20042;-74
2022/09/07 01:19:26;;;;;;;12.90;7.15;;;17.80;99.90;;;;;;5017584;28;20051;-72
2022/09/07 01:22:22;;;;;;;11.95;6.88;;;17.70;99.90;;;;;;5025074;28;20473;-72
2022/09/07 01:25:10;;;;;;;11.90;7.13;;;18.00;99.90;;;;;;5013793;28;20046;-72
2022/09/07 01:27:58;;;;;;;11.30;7.25;;;17.70;99.90;;;;;;5010301;28;20508;-73
2022/09/07 01:30:24;;;;;;;14.02;8.05;;;17.60;99.90;;;;;;5020977;28;20073;-73
2022/09/07 01:33:29;;;;;;;13.20;6.97;;;17.70;99.90;;;;;;4997436;28;20120;-72
2022/09/07 01:36:26;;;;;;;14.23;7.53;;;17.70;99.90;;;;;;5018995;28;20036;-74
2022/09/07 01:39:01;;;;;;;13.82;7.90;;;17.70;99.90;;;;;;5014029;28;20037;-74
2022/09/07 01:42:02;;;;;;;15.13;7.72;;;17.70;99.90;;;;;;5022157;28;20045;-73
2022/09/07 01:44:57;;;;;;;13.55;7.38;;;17.70;99.90;;;;;;5013054;28;20108;-74
2022/09/07 01:47:38;;;;;;;12.45;7.70;;;17.70;99.90;;;;;;5003773;28;20037;-74
2022/09/07 01:50:18;;;;;;;12.88;7.57;;;17.60;99.90;;;;;;4999260;28;20034;-74
2022/09/07 01:53:00;;;;;;;14.35;7.93;;;17.60;99.90;;;;;;5023418;28;20041;-75
2022/09/07 01:55:35;;;;;;;14.20;7.28;;;17.60;99.90;;;;;;5013818;28;20210;-75
2022/09/07 01:58:24;;;;;;;13.45;8.00;;;17.60;99.90;;;;;;5024288;28;20060;-75
2022/09/07 02:00:57;;;;;;;16.77;7.47;;;17.60;99.90;;;;;;5022047;28;20037;-75
2022/09/07 02:03:47;;;;;;;15.20;8.20;;;17.60;99.90;;;;;;5015603;28;20057;-75
2022/09/07 02:06:38;;;;;;;15.27;8.57;;;17.50;99.90;;;;;;5011347;28;20480;-74
2022/09/07 02:09:11;;;;;;;13.93;9.00;;;17.50;99.90;;;;;;4978355;28;20055;-73
2022/09/07 02:11:41;;;;;;;17.15;8.93;;;17.50;99.90;;;;;;5017129;28;20050;-72
2022/09/07 02:14:16;;;;;;;14.63;8.60;;;17.50;99.90;;;;;;5023296;28;20055;-73
2022/09/07 02:16:56;;;;;;;13.98;8.73;;;17.40;99.90;;;;;;5015930;28;20065;-72
2022/09/07 02:19:25;;;;;;;13.60;8.40;;;17.40;99.90;;;;;;5019508;28;20083;-73
2022/09/07 02:21:58;;;;;;;13.63;7.63;;;17.40;99.90;;;;;;5002485;28;20049;-72
2022/09/07 02:24:27;;;;;;;;;;;17.40;99.90;;;;;;4997256;28;20037;-74
2022/09/07 02:26:54;;;;;;;12.82;6.95;;;17.40;99.90;;;;;;5017484;28;19923;-73
2022/09/07 02:29:21;;;;;;;11.95;6.47;;;17.40;99.90;;;;;;5015206;28;20076;-71
2022/09/07 02:31:48;;;;;;;12.18;6.20;;;17.40;99.90;;;;;;5020493;28;21054;-71
2022/09/07 02:34:14;;;;;;;12.10;6.13;;;17.40;99.90;;;;;;5018473;28;20045;-73
2022/09/07 02:36:44;;;;;;;12.30;6.93;;;17.30;99.90;;;;;;5012587;28;20034;-74
2022/09/07 02:39:10;;;;;;;11.23;6.57;;;17.30;99.90;;;;;;5022500;28;20120;-73
2022/09/07 02:41:39;;;;;;;11.95;6.68;;;17.20;99.90;;;;;;4999620;28;20117;-72
2022/09/07 02:44:33;;;;;;;11.75;6.35;;;17.20;99.90;;;;;;5017994;28;20051;-72
2022/09/07 02:47:23;;;;;;;12.45;6.68;;;17.20;99.90;;;;;;5019575;28;20452;-72
2022/09/07 02:50:25;;;;;;;12.82;6.60;;;17.20;99.90;;;;;;5025001;28;20579;-72
2022/09/07 02:53:25;;;;;;;10.52;5.90;;;17.20;99.90;;;;;;5018765;28;20077;-71
2022/09/07 02:56:26;;;;;;;13.63;5.80;;;17.20;99.90;;;;;;5022308;28;20092;-71
2022/09/07 02:58:59;;;;;;;11.13;5.40;;;17.20;99.90;;;;;;5016296;28;20512;-70
2022/09/07 03:01:57;;;;;;;11.48;5.80;;;17.20;99.90;;;;;;5022780;28;20033;-72
2022/09/07 03:04:41;;;;;;;9.68;4.70;;;17.20;99.90;;;;;;5021954;28;20042;-71
2022/09/07 03:07:21;;;;;;;9.88;4.93;;;17.20;99.90;;;;;;5019838;28;20045;-71
2022/09/07 03:09:50;;;;;;;10.40;5.20;;;17.20;99.90;;;;;;5016674;28;20403;-72
2022/09/07 03:12:16;;;;;;;9.63;5.13;;;17.20;99.90;;;;;;5012804;28;20042;-72
2022/09/07 03:14:43;;;;;;;9.77;5.00;;;17.20;99.90;;;;;;5015245;28;20038;-71
2022/09/07 03:17:09;;;;;;;10.80;5.22;;;17.30;99.90;;;;;;5022957;28;20037;-71
2022/09/07 03:19:35;;;;;;;10.18;4.80;;;17.30;99.90;;;;;;5023478;28;20037;-70
2022/09/07 03:22:02;;;;;;;8.88;4.82;;;17.30;99.90;;;;;;4998994;28;20511;-70
2022/09/07 03:24:28;;;;;;;10.40;5.18;;;17.30;99.90;;;;;;5026726;28;20045;-71
2022/09/07 03:26:54;;;;;;;9.27;4.45;;;17.30;99.90;;;;;;5024946;28;20477;-72
2022/09/07 03:29:19;;;;;;;9.30;5.05;;;17.30;99.90;;;;;;5031954;28;20057;-71
2022/09/07 03:31:45;;;;;;;10.93;5.18;;;17.30;99.90;;;;;;5016302;28;20042;-71
2022/09/07 03:34:11;;;;;;;10.75;5.57;;;17.30;99.90;;;;;;5002300;28;20072;-70
2022/09/07 03:36:37;;;;;;;10.85;5.40;;;17.30;99.90;;;;;;5016766;28;20140;-72
2022/09/07 03:39:05;;;;;;;10.93;5.10;;;17.20;99.90;;;;;;5023389;28;20450;-73
2022/09/07 03:41:31;;;;;;;10.20;5.20;;;17.20;99.90;;;;;;5018367;28;20385;-70
2022/09/07 03:44:04;;;;;;;10.52;5.93;;;17.20;99.90;;;;;;5014486;28;20083;-70
2022/09/07 03:46:30;;;;;;;10.02;5.22;;;17.10;99.90;;;;;;5031875;28;20037;-70
2022/09/07 03:48:56;;;;;;;10.15;5.40;;;17.10;99.90;;;;;;5014967;28;20056;-71
2022/09/07 03:51:22;;;;;;;10.15;5.38;;;17.10;99.90;;;;;;5018766;28;20050;-70
2022/09/07 03:53:48;;;;;;;9.98;5.18;;;17.00;99.90;;;;;;5030928;28;20080;-70
2022/09/07 03:56:17;;;;;;;11.13;5.45;;;17.00;99.90;;;;;;5026294;28;20419;-71
2022/09/07 03:58:45;;;;;;;10.52;6.18;;;17.00;99.90;;;;;;5041257;28;20034;-71
2022/09/07 04:01:22;;;;;;;12.93;6.32;;;17.00;99.90;;;;;;5001761;28;20041;-72
2022/09/07 04:03:48;;;;;;;11.25;6.55;;;17.00;99.90;;;;;;5015953;28;20412;-71
2022/09/07 04:06:18;;;;;;;12.23;6.72;;;17.00;99.90;;;;;;4999133;28;20102;-72
2022/09/07 04:08:44;;;;;;;12.07;6.72;;;17.00;99.90;;;;;;5024536;28;20056;-71
2022/09/07 04:11:14;;;;;;;11.90;7.43;;;17.00;99.90;;;;;;5008971;28;20594;-71
2022/09/07 04:13:40;;;;;;;11.30;7.07;;;17.00;99.90;;;;;;5014347;28;20069;-72
2022/09/07 04:16:17;;;;;;;11.88;7.43;;;16.90;99.90;;;;;;5025866;28;20038;-69
2022/09/07 04:18:44;;;;;;;13.35;7.50;;;16.90;99.90;;;;;;5008097;28;20071;-70
2022/09/07 04:21:10;;;;;;;12.77;7.93;;;16.90;99.90;;;;;;5017955;28;20045;-71
2022/09/07 04:23:38;;;;;;;14.00;7.90;;;16.90;99.90;;;;;;5009489;28;20404;-70
2022/09/07 04:26:04;;;;;;;12.93;8.27;;;16.90;99.90;;;;;;5004785;28;20056;-71
2022/09/07 04:28:30;;;;;;;12.40;7.93;;;16.90;99.90;;;;;;5024187;28;20042;-69
2022/09/07 04:31:00;;;;;;;14.23;8.15;;;16.90;99.90;;;;;;5029908;28;20040;-70
2022/09/07 04:33:26;;;;;;;14.73;8.10;;;16.90;99.90;;;;;;5023752;28;20030;-71
2022/09/07 04:35:52;;;;;;;14.25;8.77;;;16.90;99.90;;;;;;5004720;28;20045;-70
2022/09/07 04:38:18;;;;;;;13.10;8.18;;;16.90;99.90;;;;;;4996770;28;20057;-70
2022/09/07 04:40:43;;;;;;;11.88;7.88;;;16.80;99.90;;;;;;5008558;28;20041;-71
2022/09/07 04:43:11;;;;;;;14.50;8.55;;;16.90;99.90;;;;;;4990325;28;20159;-71
2022/09/07 04:45:38;;;;;;;13.15;9.50;;;16.90;99.90;;;;;;5019782;28;20037;-71
2022/09/07 04:48:04;;;;;;;13.45;8.93;;;16.90;99.90;;;;;;5024814;28;20119;-70
2022/09/07 04:50:30;;;;;;;14.32;8.70;;;16.90;99.90;;;;;;5004899;28;20045;-70
2022/09/07 04:52:56;;;;;;;12.95;8.82;;;16.90;99.90;;;;;;5025402;28;20115;-71
2022/09/07 04:55:21;;;;;;;12.90;9.25;;;16.90;99.90;;;;;;4990171;28;20071;-71
2022/09/07 04:57:50;;;;;;;14.00;9.00;;;16.90;99.90;;;;;;5019266;28;20040;-71
2022/09/07 05:00:16;;;;;;;13.68;8.98;;;16.90;99.90;;;;;;4987670;28;20049;-69
2022/09/07 05:02:42;;;;;;;15.52;10.25;;;16.90;99.90;;;;;;5021295;28;20041;-71
2022/09/07 05:05:08;;;;;;;16.30;10.18;;;16.90;99.90;;;;;;5008524;28;20407;-71
2022/09/07 05:07:33;;;;;;;14.35;9.68;;;16.90;99.90;;;;;;5022572;28;20311;-71
2022/09/07 05:09:59;;;;;;;16.35;10.02;;;16.90;99.90;;;;;;5028391;28;20324;-70
2022/09/07 05:12:25;;;;;;;15.30;9.77;;;16.90;99.90;;;;;;5029989;28;20096;-71
2022/09/07 05:14:51;;;;;;;14.30;10.10;;;16.90;99.90;;;;;;5010569;28;20037;-70
2022/09/07 05:17:18;;;;;;;15.27;10.23;;;16.90;99.90;;;;;;5019567;28;20053;-70
2022/09/07 05:19:43;;;;;;;15.45;10.82;;;16.90;99.90;;;;;;5015928;28;20220;-71
2022/09/07 05:22:12;;;;;;;14.98;10.68;;;17.00;99.90;;;;;;4992025;28;20258;-70
2022/09/07 05:24:38;;;;;;;16.98;11.25;;;17.00;99.90;;;;;;5007848;28;20399;-71
2022/09/07 05:27:04;;;;;;;14.30;10.57;;;16.50;99.90;;;;;;4999029;28;20061;-71
2022/09/07 05:29:30;;;;;;;14.98;10.98;;;17.00;99.90;;;;;;5003642;28;20116;-72
2022/09/07 05:31:56;;;;;;;17.33;11.02;;;17.00;99.90;;;;;;5004868;28;20049;-71
2022/09/07 05:34:23;;;;;;;15.82;10.93;;;17.00;99.90;;;;;;5000855;28;20041;-71
2022/09/07 05:36:48;;;;;;;16.20;11.35;;;17.10;99.90;;;;;;4988710;28;20205;-71
2022/09/07 05:39:14;;;;;;;16.08;11.88;;;17.10;99.90;;;;;;5005870;28;20318;-71
2022/09/07 05:41:40;;;;;;;19.40;13.07;;;17.10;99.90;;;;;;5012280;28;20116;-71
2022/09/07 05:44:06;;;;;;;18.25;12.23;;;17.20;99.90;;;;;;5021497;28;20523;-71
2022/09/07 05:46:32;;;;;;;20.17;12.43;;;17.20;99.90;;;;;;5027083;28;20056;-70
2022/09/07 05:48:59;;;;;;;18.15;12.65;;;17.20;99.90;;;;;;5022816;28;20096;-72
2022/09/07 05:51:25;;;;;;;16.70;12.45;;;17.20;99.90;;;;;;5017718;28;20137;-72
2022/09/07 05:53:50;;;;;;;17.27;12.45;;;17.10;99.90;;;;;;5025878;28;20122;-72
2022/09/07 05:56:16;;;;;;;17.20;12.27;;;17.10;99.90;;;;;;5005104;28;20030;-71
2022/09/07 05:58:46;;;;;;;16.95;12.48;;;17.10;99.90;;;;;;5008613;28;20172;-71
2022/09/07 06:01:12;;;;;;;16.08;13.00;;;17.10;99.90;;;;;;5024954;28;20500;-71
2022/09/07 06:03:40;;;;;;;17.13;13.23;;;17.10;99.90;;;;;;5002577;28;20044;-71
2022/09/07 06:06:12;;;;;;;17.23;12.55;;;17.10;99.90;;;;;;4999662;28;20538;-72
2022/09/07 06:08:44;;;;;;;16.33;12.40;;;17.00;99.90;;;;;;5017337;28;20519;-70
2022/09/07 06:11:13;;;;;;;18.60;13.33;;;17.00;99.90;;;;;;5020232;28;20591;-72
2022/09/07 06:13:39;;;;;;;20.20;13.40;;;16.90;99.90;;;;;;4996376;28;20042;-71
2022/09/07 06:16:06;;;;;;;16.27;12.45;;;17.10;99.90;;;;;;5013899;28;20559;-71
2022/09/07 06:18:37;;;;;;;18.13;13.32;;;17.10;99.90;;;;;;5004978;28;20734;-70
2022/09/07 06:21:05;;;;;;;18.52;12.88;;;17.20;99.90;;;;;;5019994;28;20108;-70
2022/09/07 06:23:34;;;;;;;17.95;13.18;;;17.20;99.90;;;;;;4995121;28;21772;-72
2022/09/07 06:26:00;;;;;;;19.30;13.00;;;17.20;99.90;;;;;;5022279;28;20041;-71
2022/09/07 06:28:30;;;;;;;16.85;13.00;;;17.30;99.90;;;;;;5013693;28;20069;-71
2022/09/07 06:31:17;;;;;;;17.67;11.77;;;17.30;99.90;;;;;;5013752;28;20555;-71
2022/09/07 06:33:43;;;;;;;18.15;13.23;;;17.40;99.90;;;;;;5013691;28;20030;-70
2022/09/07 06:36:17;;;;;;;16.70;12.75;;;17.40;99.90;;;;;;5013359;28;20045;-69
2022/09/07 06:38:44;;;;;;;18.17;13.35;;;17.40;99.90;;;;;;5010372;28;20049;-70
2022/09/07 06:41:18;;;;;;;17.25;13.02;;;17.40;99.90;;;;;;5018269;28;20064;-72
2022/09/07 06:43:44;;;;;;;17.13;13.13;;;17.40;99.90;;;;;;5010124;28;20405;-69
2022/09/07 06:46:10;;;;;;;19.40;13.75;;;17.40;99.90;;;;;;5001328;28;20527;-69
2022/09/07 06:48:37;;;;;;;16.75;12.85;;;17.50;99.90;;;;;;5012176;28;20465;-71
2022/09/07 06:51:14;;;;;;;19.30;13.10;;;17.50;99.90;;;;;;5008937;28;20056;-71
2022/09/07 06:53:41;;;;;;;20.52;13.43;;;17.60;99.90;;;;;;5014323;28;20042;-71
2022/09/07 06:56:09;;;;;;;19.33;14.32;;;17.60;99.90;;;;;;5013066;28;20160;-71
2022/09/07 06:58:36;;;;;;;21.17;15.38;;;17.70;99.90;;;;;;5012721;28;20114;-70
2022/09/07 07:01:11;;;;;;;23.30;14.65;;;17.70;99.90;;;;;;5010740;28;20025;-71
2022/09/07 07:03:37;;;;;;;20.25;13.35;;;17.70;99.90;;;;;;5011156;28;20783;-70
2022/09/07 07:06:04;;;;;;;18.95;13.65;;;17.70;99.90;;;;;;5024030;28;20040;-70
2022/09/07 07:08:30;;;;;;;20.23;14.05;;;17.80;99.90;;;;;;5030668;28;20034;-71
2022/09/07 07:11:00;;;;;;;20.50;15.32;;;17.90;99.90;;;;;;5021646;28;20092;-71
2022/09/07 07:13:26;;;;;;;19.92;14.55;;;17.90;99.90;;;;;;5024674;28;20038;-71
2022/09/07 07:15:52;;;;;;;22.27;17.20;;;18.00;99.90;;;;;;4990755;28;20033;-71
2022/09/07 07:18:18;;;;;;;25.15;18.52;;;18.00;99.90;;;;;;5015105;28;20439;-71
2022/09/07 07:20:44;;;;;;;22.25;18.02;;;18.00;99.90;;;;;;5016343;28;20044;-71
2022/09/07 07:23:11;;;;;;;26.48;18.35;;;18.00;99.90;;;;;;5018667;28;20175;-71
2022/09/07 07:25:37;;;;;;;22.10;17.45;;;18.10;99.90;;;;;;4984827;28;20049;-71
2022/09/07 07:28:03;;;;;;;20.48;15.75;;;18.10;99.90;;;;;;5018330;28;20041;-70
2022/09/07 07:30:30;;;;;;;19.95;14.52;;;18.10;99.90;;;;;;5021441;28;20548;-70
2022/09/07 07:32:57;;;;;;;18.88;14.38;;;18.10;99.90;;;;;;5019477;28;20568;-70
2022/09/07 07:35:23;;;;;;;21.83;14.73;;;18.10;99.90;;;;;;5013661;28;20499;-72
2022/09/07 07:37:53;;;;;;;18.55;14.23;;;18.10;99.90;;;;;;5012452;28;20100;-70
2022/09/07 07:40:18;;;;;;;17.75;13.60;;;18.10;99.90;;;;;;5018376;28;20042;-71
2022/09/07 07:42:44;;;;;;;17.45;13.50;;;18.10;99.90;;;;;;5007627;28;20100;-70
2022/09/07 07:45:11;;;;;;;19.50;15.13;;;18.10;99.90;;;;;;5015437;28;20191;-71
2022/09/07 07:47:37;;;;;;;18.80;13.93;;;18.20;99.90;;;;;;5019084;28;20041;-71
2022/09/07 07:50:04;;;;;;;18.48;13.20;;;18.10;99.90;;;;;;4997569;28;20100;-71
2022/09/07 07:52:35;;;;;;;18.33;12.77;;;18.10;99.90;;;;;;5019063;28;20057;-70
2022/09/07 07:55:01;;;;;;;17.75;13.02;;;18.20;99.90;;;;;;4982666;28;20107;-71
2022/09/07 07:57:28;;;;;;;16.95;13.27;;;18.10;99.90;;;;;;4999680;28;20044;-70
2022/09/07 07:59:53;;;;;;;20.10;13.85;;;18.10;99.90;;;;;;4998593;28;20034;-71
2022/09/07 08:02:20;;;;;;;20.77;13.57;;;18.20;99.90;;;;;;5002266;28;20040;-70
2022/09/07 08:04:45;;;;;;;19.13;14.05;;;18.10;99.90;;;;;;5019596;28;20072;-73
2022/09/07 08:07:11;;;;;;;16.90;13.52;;;18.50;99.90;;;;;;5016204;28;20037;-70
2022/09/07 08:09:44;;;;;;;19.92;15.05;;;18.20;99.90;;;;;;5017187;28;20497;-72
2022/09/07 08:12:15;;;;;;;20.90;14.65;;;18.20;99.90;;;;;;5007581;28;20041;-72
2022/09/07 08:14:41;;;;;;;18.02;14.65;;;18.20;99.90;;;;;;5014821;28;20042;-72
2022/09/07 08:17:12;;;;;;;18.17;14.77;;;18.20;99.90;;;;;;5014161;28;20121;-71
2022/09/07 08:19:38;;;;;;;20.70;15.25;;;18.20;99.90;;;;;;4993820;28;20062;-71
2022/09/07 08:22:05;;;;;;;20.92;14.80;;;18.20;99.90;;;;;;5004827;28;20041;-71
2022/09/07 08:24:31;;;;;;;18.13;14.18;;;18.20;99.90;;;;;;5002995;28;20056;-71
2022/09/07 08:26:57;;;;;;;18.77;14.77;;;18.30;99.90;;;;;;5018892;28;20034;-71
2022/09/07 08:29:23;;;;;;;16.92;14.23;;;18.30;99.90;;;;;;5020568;28;20068;-72
2022/09/07 08:31:49;;;;;;;19.27;14.48;;;18.40;99.90;;;;;;5014180;28;20050;-71
2022/09/07 08:34:15;;;;;;;20.15;14.50;;;18.40;99.90;;;;;;4997733;28;20045;-71
2022/09/07 08:36:41;;;;;;;18.70;14.50;;;18.50;99.90;;;;;;5015903;28;20038;-70
2022/09/07 08:39:07;;;;;;;17.65;14.60;;;18.50;99.90;;;;;;5015738;28;20393;-69
2022/09/07 08:41:54;;;;;;;19.55;15.07;;;18.50;99.90;;;;;;5014014;28;21411;-72
2022/09/07 08:44:48;;;;;;;18.40;14.50;;;18.60;99.90;;;;;;5015884;28;20176;-72
2022/09/07 08:47:14;;;;;;;20.48;14.70;;;18.80;99.90;;;;;;4995956;28;20038;-70
2022/09/07 08:50:05;;;;;;;19.30;15.30;;;18.70;99.90;;;;;;5013020;28;20076;-72
2022/09/07 08:52:52;;;;;;;19.27;14.65;;;18.90;99.90;;;;;;5013542;28;20091;-70
2022/09/07 08:55:39;;;;;;;18.73;14.60;;;19.00;99.90;;;;;;5002273;28;20042;-72
2022/09/07 08:58:13;;;;;;;20.15;14.63;;;19.00;99.90;;;;;;5013430;28;20049;-72
2022/09/07 09:00:39;;;;;;;17.98;14.52;;;19.10;99.90;;;;;;5018370;28;20049;-72
2022/09/07 09:03:20;;;;;;;18.75;14.55;;;19.10;99.90;;;;;;4999651;28;20419;-72
2022/09/07 09:06:11;;;;;;;19.17;14.48;;;19.20;99.90;;;;;;4996043;28;20045;-72
2022/09/07 09:08:51;;;;;;;20.08;15.88;;;19.20;99.90;;;;;;5013395;28;20528;-71
2022/09/07 09:11:17;;;;;;;18.67;15.15;;;19.30;99.90;;;;;;5016412;28;20423;-72
2022/09/07 09:14:04;;;;;;;20.67;15.85;;;19.40;99.90;;;;;;5016476;28;20037;-71
2022/09/07 09:16:57;;;;;;;18.60;14.57;;;19.30;99.90;;;;;;5013744;28;20045;-71
2022/09/07 09:19:29;;;;;;;20.33;15.75;;;19.40;99.90;;;;;;5000467;28;20060;-72
2022/09/07 09:22:19;;;;;;;19.08;14.48;;;19.40;99.90;;;;;;4995941;28;20045;-72
2022/09/07 09:24:50;;;;;;;20.40;15.27;;;19.40;99.90;;;;;;5019717;28;20049;-71
2022/09/07 09:27:16;;;;;;;19.75;15.57;;;19.50;99.90;;;;;;4999027;28;20436;-72
2022/09/07 09:29:42;;;;;;;18.85;14.98;;;19.50;99.90;;;;;;5009923;28;20037;-72
2022/09/07 09:32:30;;;;;;;19.67;14.48;;;19.70;99.90;;;;;;5018984;28;20363;-72
2022/09/07 09:35:23;;;;;;;17.08;13.80;;;19.90;99.90;;;;;;5019012;28;20120;-72
2022/09/07 09:37:49;;;;;;;18.15;14.27;;;20.00;99.90;;;;;;4986125;28;20054;-73
2022/09/07 09:40:24;;;;;;;19.83;14.00;;;20.10;99.90;;;;;;5016630;28;20037;-72
2022/09/07 09:43:20;;;;;;;19.58;14.23;;;20.40;99.90;;;;;;5011971;28;20048;-72
2022/09/07 09:45:49;;;;;;;19.13;13.70;;;20.40;99.90;;;;;;5021601;28;20329;-72
2022/09/07 09:48:25;;;;;;;17.67;13.07;;;19.50;99.90;;;;;;4993737;28;20045;-72
2022/09/07 09:50:55;;;;;;;17.27;12.52;;;20.60;99.90;;;;;;5013568;28;20045;-72
2022/09/07 09:53:36;;;;;;;18.38;13.70;;;19.70;99.90;;;;;;5004548;28;20072;-73
2022/09/07 09:56:03;;;;;;;16.73;12.35;;;20.60;99.90;;;;;;5020273;28;20088;-72
2022/09/07 09:58:35;;;;;;;17.23;13.05;;;20.60;99.90;;;;;;5010205;28;20042;-74
2022/09/07 10:01:07;;;;;;;16.17;12.57;;;20.60;99.90;;;;;;4995745;28;20041;-73
2022/09/07 10:03:33;;;;;;;17.30;12.45;;;20.70;99.90;;;;;;5013843;28;20046;-72
2022/09/07 10:06:03;;;;;;;16.73;12.35;;;20.80;99.90;;;;;;5013514;28;20416;-72
2022/09/07 10:08:33;;;;;;;17.17;12.07;;;20.90;99.90;;;;;;5022722;28;20392;-72
2022/09/07 10:11:04;;;;;;;14.90;11.52;;;20.90;99.90;;;;;;5009851;28;20551;-73
2022/09/07 10:13:37;;;;;;;18.10;11.80;;;20.90;99.90;;;;;;5012593;28;20515;-72
2022/09/07 10:16:08;;;;;;;15.52;11.93;;;20.90;99.90;;;;;;5009212;28;20177;-72
2022/09/07 10:18:37;;;;;;;15.05;11.15;;;21.00;99.90;;;;;;5017113;28;20369;-73
2022/09/07 10:21:26;;;;;;;15.88;11.73;;;21.10;99.90;;;;;;5019653;28;20060;-72
2022/09/07 10:24:05;;;;;;;13.70;9.70;;;21.00;99.90;;;;;;5016251;28;20077;-73
2022/09/07 10:26:36;;;;;;;14.95;9.18;;;21.40;99.90;;;;;;5012642;28;20054;-74
2022/09/07 10:29:11;;;;;;;14.80;9.15;;;21.40;99.90;;;;;;4996620;28;20050;-73
2022/09/07 10:31:47;;;;;;;13.32;9.23;;;21.30;99.90;;;;;;5010702;28;20042;-74
2022/09/07 10:34:27;;;;;;;13.90;9.50;;;21.20;99.90;;;;;;4992963;28;20072;-73
2022/09/07 10:37:24;;;;;;;12.40;7.97;;;21.20;99.90;;;;;;5017397;28;20056;-73
2022/09/07 10:40:07;;;;;;;11.40;7.43;;;21.20;99.90;;;;;;5015112;28;20432;-74
2022/09/07 10:42:38;;;;;;;11.82;7.40;;;21.40;99.90;;;;;;5010480;28;20048;-73
2022/09/07 10:45:22;;;;;;;12.80;7.55;;;21.50;99.90;;;;;;5009645;28;20076;-73
2022/09/07 10:47:57;;;;;;;11.18;7.38;;;21.60;99.90;;;;;;5008159;28;20116;-73
2022/09/07 10:50:38;;;;;;;11.07;6.40;;;21.60;99.90;;;;;;5014587;28;20488;-73
2022/09/07 10:53:25;;;;;;;10.20;6.10;;;21.60;99.90;;;;;;5012806;28;20571;-73
2022/09/07 10:56:14;;;;;;;10.68;6.25;;;21.60;99.90;;;;;;5014282;28;20389;-75
2022/09/07 10:59:18;;;;;;;11.95;5.72;;;21.70;99.90;;;;;;5014886;28;20037;-73
2022/09/07 11:01:49;;;;;;;10.02;5.40;;;21.50;99.90;;;;;;4993489;28;20538;-73
2022/09/07 11:04:48;;;;;;;10.20;5.60;;;21.60;99.90;;;;;;4997009;28;20033;-73
2022/09/07 11:07:16;;;;;;;10.40;5.40;;;21.60;99.90;;;;;;4973141;28;20053;-73
2022/09/07 11:09:54;;;;;;;9.50;5.70;;;21.70;99.90;;;;;;5005612;28;20053;-73
2022/09/07 11:12:34;;;;;;;10.18;5.40;;;21.90;99.90;;;;;;5017181;28;20077;-74
2022/09/07 11:15:12;;;;;;;9.02;4.93;;;22.00;99.90;;;;;;5019953;28;20049;-74
2022/09/07 11:18:18;;;;;;;9.15;4.78;;;22.00;99.90;;;;;;5009369;28;20129;-73
2022/09/07 11:20:57;;;;;;;11.10;5.30;;;22.00;99.90;;;;;;5010559;28;20084;-73
2022/09/07 11:23:31;;;;;;;11.20;5.47;;;22.00;99.90;;;;;;5015583;28;20080;-75
2022/09/07 11:26:10;;;;;;;9.52;5.40;;;22.00;99.90;;;;;;5016647;28;20095;-73
2022/09/07 11:28:45;;;;;;;9.32;5.10;;;22.00;99.90;;;;;;5042840;28;20124;-74
2022/09/07 11:31:30;;;;;;;10.27;5.40;;;22.50;99.90;;;;;;5014196;28;20121;-73
2022/09/07 11:34:15;;;;;;;9.75;5.05;;;22.50;99.90;;;;;;5014010;28;20404;-73
2022/09/07 11:37:00;;;;;;;9.10;4.85;;;22.90;99.90;;;;;;5017997;28;20081;-73
2022/09/07 11:39:34;;;;;;;10.45;5.20;;;23.30;99.90;;;;;;5013048;28;20117;-72
2022/09/07 11:42:13;;;;;;;8.63;4.57;;;23.40;99.90;;;;;;5017812;28;20046;-71
2022/09/07 11:44:48;;;;;;;8.95;4.60;;;23.30;99.90;;;;;;5020936;28;20053;-73
2022/09/07 11:47:24;;;;;;;10.40;4.80;;;23.20;99.90;;;;;;5022685;28;20048;-72
2022/09/07 11:49:54;;;;;;;8.45;4.20;;;23.30;99.90;;;;;;5022542;28;20046;-73
2022/09/07 11:52:42;;;;;;;8.50;4.05;;;23.50;99.90;;;;;;4998089;28;20850;-75
2022/09/07 11:55:20;;;;;;;9.20;3.97;;;23.60;99.90;;;;;;5004299;28;20037;-76
2022/09/07 11:58:14;;;;;;;7.97;3.80;;;23.90;99.90;;;;;;5001836;28;20604;-73
2022/09/07 12:01:19;;;;;;;10.35;4.10;;;23.70;99.90;;;;;;5022694;28;20049;-73
2022/09/07 12:04:05;;;;;;;8.27;3.85;;;23.20;99.90;;;;;;5043022;28;20041;-73
2022/09/07 12:06:37;;;;;;;8.43;3.63;;;23.30;99.90;;;;;;5015568;28;20116;-73
2022/09/07 12:09:25;;;;;;;8.50;3.97;;;23.20;99.90;;;;;;4999701;28;20042;-74
2022/09/07 12:12:07;;;;;;;9.70;3.60;;;23.10;99.90;;;;;;5053142;28;20107;-73
2022/09/07 12:15:04;;;;;;;9.75;3.58;;;23.00;99.90;;;;;;5021992;28;20943;-74
2022/09/07 12:17:42;;;;;;;7.75;3.25;;;22.90;99.90;;;;;;4999650;28;20596;-72
2022/09/07 12:20:11;;;;;;;7.68;3.38;;;23.00;99.90;;;;;;5026268;28;20050;-73
2022/09/07 12:22:55;;;;;;;9.80;3.95;;;23.40;99.90;;;;;;5020884;28;20073;-73
2022/09/07 12:25:21;;;;;;;7.45;2.83;;;23.40;99.90;;;;;;5005338;28;20046;-74
2022/09/07 12:27:49;;;;;;;7.63;2.88;;;23.70;99.90;;;;;;5016684;28;20042;-73
2022/09/07 12:30:17;;;;;;;6.68;2.60;;;24.00;99.90;;;;;;5022038;28;20103;-74
2022/09/07 12:32:50;;;;;;;7.78;2.80;;;24.20;99.90;;;;;;5017061;28;20057;-74
2022/09/07 12:35:25;;;;;;;7.25;2.60;;;24.40;99.90;;;;;;5012590;28;20408;-73
2022/09/07 12:37:52;;;;;;;6.50;2.72;;;24.30;99.90;;;;;;5009360;28;20045;-73
2022/09/07 12:40:29;;;;;;;7.15;2.70;;;24.20;99.90;;;;;;5006331;28;20124;-72
2022/09/07 12:43:13;;;;;;;7.30;2.88;;;24.30;99.90;;;;;;5006494;28;20059;-73
2022/09/07 12:45:50;;;;;;;6.40;2.40;;;24.40;99.90;;;;;;5016486;28;20624;-73
2022/09/07 12:48:16;;;;;;;7.25;2.53;;;24.50;99.90;;;;;;5001433;28;20281;-73
2022/09/07 12:50:57;;;;;;;6.82;2.40;;;24.60;99.90;;;;;;5025298;28;20424;-73
2022/09/07 12:53:47;;;;;;;6.53;2.33;;;24.30;99.90;;;;;;5052466;28;20037;-72
2022/09/07 12:56:49;;;;;;;5.13;1.90;;;24.40;99.90;;;;;;5014152;28;20045;-72
2022/09/07 12:59:42;;;;;;;4.95;1.73;;;24.20;99.90;;;;;;4946373;28;20053;-73
2022/09/07 13:02:45;;;;;;;5.55;2.00;;;24.00;99.90;;;;;;5022621;28;20037;-73
2022/09/07 13:05:11;;;;;;;;;;;23.80;99.90;;;;;;5003325;28;20046;-73
2022/09/07 13:07:42;;;;;;;6.47;2.20;;;23.50;99.90;;;;;;5027265;28;19963;-73